sensor_id;sensor_type;location;lat;lon;timestamp;pressure;altitude;pressure_sealevel;temperature;humidity
19508;BME280;40157;42.566;27.526;2023-03-07T00:00:50;100431.56;;;9.15;73.53
19508;BME280;40157;42.566;27.526;2023-03-07T00:02:51;100509.00;;;9.57;73.62
19508;BME280;40157;42.566;27.526;2023-03-07T00:04:51;100481.66;;;9.38;73.69
19508;BME280;40157;42.566;27.526;2023-03-07T00:06:54;100393.66;;;8.90;74.57
19508;BME280;40157;42.566;27.526;2023-03-07T00:08:58;100481.78;;;9.44;75.18
19508;BME280;40157;42.566;27.526;2023-03-07T00:11:04;100448.25;;;9.22;75.74
19508;BME280;40157;42.566;27.526;2023-03-07T00:13:05;100377.78;;;8.78;76.26
19508;BME280;40157;42.566;27.526;2023-03-07T00:15:06;100464.16;;;9.36;76.56
19508;BME280;40157;42.566;27.526;2023-03-07T00:17:07;100486.13;;;9.44;76.86
19508;BME280;40157;42.566;27.526;2023-03-07T00:19:07;100471.97;;;9.31;77.04
19508;BME280;40157;42.566;27.526;2023-03-07T00:21:12;100482.50;;;9.34;77.61
19508;BME280;40157;42.566;27.526;2023-03-07T00:23:13;100478.97;;;9.34;77.63
19508;BME280;40157;42.566;27.526;2023-03-07T00:25:14;100476.31;;;9.32;77.93
19508;BME280;40157;42.566;27.526;2023-03-07T00:27:14;100464.81;;;9.21;78.13
19508;BME280;40157;42.566;27.526;2023-03-07T00:29:15;100471.75;;;9.20;77.96
19508;BME280;40157;42.566;27.526;2023-03-07T00:31:16;100449.75;;;9.07;78.47
19508;BME280;40157;42.566;27.526;2023-03-07T00:33:17;100474.41;;;9.22;78.41
19508;BME280;40157;42.566;27.526;2023-03-07T00:35:18;100476.06;;;9.17;78.63
19508;BME280;40157;42.566;27.526;2023-03-07T00:37:20;100451.31;;;8.96;79.22
19508;BME280;40157;42.566;27.526;2023-03-07T00:39:21;100438.94;;;8.89;79.60
19508;BME280;40157;42.566;27.526;2023-03-07T00:41:24;100476.69;;;9.03;79.51
19508;BME280;40157;42.566;27.526;2023-03-07T00:43:25;100473.16;;;9.00;79.78
19508;BME280;40157;42.566;27.526;2023-03-07T00:45:25;100442.16;;;8.74;80.42
19508;BME280;40157;42.566;27.526;2023-03-07T00:47:26;100415.78;;;8.60;81.16
19508;BME280;40157;42.566;27.526;2023-03-07T00:49:27;100445.75;;;8.78;81.22
19508;BME280;40157;42.566;27.526;2023-03-07T00:51:27;100452.81;;;8.83;81.60
19508;BME280;40157;42.566;27.526;2023-03-07T00:53:28;100439.56;;;8.76;82.06
19508;BME280;40157;42.566;27.526;2023-03-07T00:55:29;100421.19;;;8.69;81.90
19508;BME280;40157;42.566;27.526;2023-03-07T00:57:29;100454.63;;;8.89;82.18
19508;BME280;40157;42.566;27.526;2023-03-07T00:59:30;100447.59;;;8.85;83.05
19508;BME280;40157;42.566;27.526;2023-03-07T01:01:30;100435.16;;;8.72;83.66
19508;BME280;40157;42.566;27.526;2023-03-07T01:03:32;100449.31;;;8.83;84.16
19508;BME280;40157;42.566;27.526;2023-03-07T01:05:37;100432.66;;;8.78;84.43
19508;BME280;40157;42.566;27.526;2023-03-07T01:07:38;100449.25;;;8.80;84.58
19508;BME280;40157;42.566;27.526;2023-03-07T01:09:38;100429.16;;;8.77;84.75
19508;BME280;40157;42.566;27.526;2023-03-07T01:11:39;100407.25;;;8.70;84.88
19508;BME280;40157;42.566;27.526;2023-03-07T01:13:39;100428.50;;;8.89;84.78
19508;BME280;40157;42.566;27.526;2023-03-07T01:15:40;100429.47;;;8.93;84.58
19508;BME280;40157;42.566;27.526;2023-03-07T01:17:40;100404.75;;;8.77;85.15
19508;BME280;40157;42.566;27.526;2023-03-07T01:19:41;100420.66;;;8.89;84.61
19508;BME280;40157;42.566;27.526;2023-03-07T01:21:42;100422.22;;;8.78;84.85
19508;BME280;40157;42.566;27.526;2023-03-07T01:23:43;100438.06;;;8.88;84.82
19508;BME280;40157;42.566;27.526;2023-03-07T01:25:43;100387.22;;;8.69;84.65
19508;BME280;40157;42.566;27.526;2023-03-07T01:27:44;100431.84;;;8.82;84.35
19508;BME280;40157;42.566;27.526;2023-03-07T01:29:44;100413.69;;;8.88;84.21
19508;BME280;40157;42.566;27.526;2023-03-07T01:31:44;100397.03;;;8.83;83.92
19508;BME280;40157;42.566;27.526;2023-03-07T01:33:49;100415.59;;;8.98;83.69
19508;BME280;40157;42.566;27.526;2023-03-07T01:35:51;100397.81;;;8.79;83.97
19508;BME280;40157;42.566;27.526;2023-03-07T01:37:52;100433.00;;;8.96;83.94
19508;BME280;40157;42.566;27.526;2023-03-07T01:39:53;100401.06;;;8.65;84.38
19508;BME280;40157;42.566;27.526;2023-03-07T01:41:53;100449.34;;;8.84;84.85
19508;BME280;40157;42.566;27.526;2023-03-07T01:43:54;100437.97;;;8.82;85.12
19508;BME280;40157;42.566;27.526;2023-03-07T01:48:26;100423.00;;;8.74;85.71
19508;BME280;40157;42.566;27.526;2023-03-07T01:50:26;100416.94;;;8.75;86.14
19508;BME280;40157;42.566;27.526;2023-03-07T01:52:35;100419.63;;;8.81;85.99
19508;BME280;40157;42.566;27.526;2023-03-07T01:54:41;100409.13;;;8.76;86.29
19508;BME280;40157;42.566;27.526;2023-03-07T01:56:47;100380.03;;;8.59;86.29
19508;BME280;40157;42.566;27.526;2023-03-07T01:58:48;100347.34;;;8.36;86.52
19508;BME280;40157;42.566;27.526;2023-03-07T02:00:49;100323.47;;;8.15;86.81
19508;BME280;40157;42.566;27.526;2023-03-07T02:05:09;100416.22;;;8.85;86.74
19508;BME280;40157;42.566;27.526;2023-03-07T02:07:10;100395.19;;;8.79;86.91
19508;BME280;40157;42.566;27.526;2023-03-07T02:09:16;100391.88;;;8.86;86.37
19508;BME280;40157;42.566;27.526;2023-03-07T02:11:18;100411.31;;;9.02;86.23
19508;BME280;40157;42.566;27.526;2023-03-07T02:13:19;100404.31;;;8.99;86.23
19508;BME280;40157;42.566;27.526;2023-03-07T02:15:20;100409.72;;;9.12;86.03
19508;BME280;40157;42.566;27.526;2023-03-07T02:17:20;100430.72;;;9.15;85.48
19508;BME280;40157;42.566;27.526;2023-03-07T02:19:38;100356.97;;;8.84;84.95
19508;BME280;40157;42.566;27.526;2023-03-07T02:22:11;100413.38;;;9.21;84.87
19508;BME280;40157;42.566;27.526;2023-03-07T02:24:26;100416.03;;;9.23;84.65
19508;BME280;40157;42.566;27.526;2023-03-07T02:26:44;100406.47;;;9.25;84.63
19508;BME280;40157;42.566;27.526;2023-03-07T02:28:46;100415.31;;;9.33;84.09
19508;BME280;40157;42.566;27.526;2023-03-07T02:30:59;100373.94;;;9.09;83.92
19508;BME280;40157;42.566;27.526;2023-03-07T02:32:59;100402.16;;;9.29;83.39
19508;BME280;40157;42.566;27.526;2023-03-07T02:35:00;100385.44;;;9.19;83.27
19508;BME280;40157;42.566;27.526;2023-03-07T02:37:05;100401.28;;;9.28;83.24
19508;BME280;40157;42.566;27.526;2023-03-07T02:39:07;100418.03;;;9.39;83.10
19508;BME280;40157;42.566;27.526;2023-03-07T02:41:11;100424.13;;;9.40;82.84
19508;BME280;40157;42.566;27.526;2023-03-07T02:43:12;100425.88;;;9.39;82.95
19508;BME280;40157;42.566;27.526;2023-03-07T02:45:16;100411.75;;;9.28;82.56
19508;BME280;40157;42.566;27.526;2023-03-07T02:47:18;100392.38;;;9.17;82.72
19508;BME280;40157;42.566;27.526;2023-03-07T02:49:18;100422.25;;;9.31;82.79
19508;BME280;40157;42.566;27.526;2023-03-07T02:51:19;100420.53;;;9.33;82.66
19508;BME280;40157;42.566;27.526;2023-03-07T02:53:19;100434.47;;;9.32;82.60
19508;BME280;40157;42.566;27.526;2023-03-07T02:55:20;100403.03;;;9.29;82.55
19508;BME280;40157;42.566;27.526;2023-03-07T02:57:20;100405.66;;;9.31;82.36
19508;BME280;40157;42.566;27.526;2023-03-07T02:59:21;100398.47;;;9.17;82.32
19508;BME280;40157;42.566;27.526;2023-03-07T03:01:22;100336.09;;;8.87;82.19
19508;BME280;40157;42.566;27.526;2023-03-07T03:03:22;100336.09;;;8.87;82.07
19508;BME280;40157;42.566;27.526;2023-03-07T03:05:22;100399.50;;;9.27;81.83
19508;BME280;40157;42.566;27.526;2023-03-07T03:07:23;100369.66;;;9.13;81.83
19508;BME280;40157;42.566;27.526;2023-03-07T03:09:24;100407.47;;;9.33;81.50
19508;BME280;40157;42.566;27.526;2023-03-07T03:11:24;100389.81;;;9.20;81.21
19508;BME280;40157;42.566;27.526;2023-03-07T03:13:25;100375.69;;;9.08;80.94
19508;BME280;40157;42.566;27.526;2023-03-07T03:15:25;100387.97;;;9.14;80.62
19508;BME280;40157;42.566;27.526;2023-03-07T03:17:26;100351.00;;;8.91;80.36
19508;BME280;40157;42.566;27.526;2023-03-07T03:19:28;100397.66;;;9.20;80.74
19508;BME280;40157;42.566;27.526;2023-03-07T03:21:28;100365.56;;;8.77;80.94
19508;BME280;40157;42.566;27.526;2023-03-07T03:23:29;100392.13;;;9.01;80.76
19508;BME280;40157;42.566;27.526;2023-03-07T03:25:29;100373.38;;;8.75;81.36
19508;BME280;40157;42.566;27.526;2023-03-07T03:27:33;100415.63;;;9.00;81.65
19508;BME280;40157;42.566;27.526;2023-03-07T03:29:34;100414.75;;;8.99;81.43
19508;BME280;40157;42.566;27.526;2023-03-07T03:31:34;100376.91;;;8.79;81.51
19508;BME280;40157;42.566;27.526;2023-03-07T03:33:35;100403.22;;;8.88;81.81
19508;BME280;40157;42.566;27.526;2023-03-07T03:35:38;100388.88;;;8.66;82.44
19508;BME280;40157;42.566;27.526;2023-03-07T03:37:39;100401.88;;;8.61;82.91
19508;BME280;40157;42.566;27.526;2023-03-07T03:39:39;100400.28;;;8.69;83.36
19508;BME280;40157;42.566;27.526;2023-03-07T03:41:40;100370.03;;;8.38;83.77
19508;BME280;40157;42.566;27.526;2023-03-07T03:43:41;100357.03;;;8.40;83.91
19508;BME280;40157;42.566;27.526;2023-03-07T03:45:42;100362.13;;;8.33;84.33
19508;BME280;40157;42.566;27.526;2023-03-07T03:47:42;100377.19;;;8.47;84.26
19508;BME280;40157;42.566;27.526;2023-03-07T03:49:43;100372.09;;;8.53;84.00
19508;BME280;40157;42.566;27.526;2023-03-07T03:51:43;100369.19;;;8.38;84.00
19508;BME280;40157;42.566;27.526;2023-03-07T03:53:44;100389.66;;;8.60;84.24
19508;BME280;40157;42.566;27.526;2023-03-07T03:55:45;100384.41;;;8.60;84.28
19508;BME280;40157;42.566;27.526;2023-03-07T03:57:45;100366.75;;;8.47;84.17
19508;BME280;40157;42.566;27.526;2023-03-07T03:59:46;100387.03;;;8.60;84.21
19508;BME280;40157;42.566;27.526;2023-03-07T04:01:47;100390.59;;;8.65;84.02
19508;BME280;40157;42.566;27.526;2023-03-07T04:03:50;100386.13;;;8.58;83.92
19508;BME280;40157;42.566;27.526;2023-03-07T04:05:51;100395.66;;;8.55;84.39
19508;BME280;40157;42.566;27.526;2023-03-07T04:07:51;100387.72;;;8.50;84.72
19508;BME280;40157;42.566;27.526;2023-03-07T04:09:52;100353.16;;;8.21;84.54
19508;BME280;40157;42.566;27.526;2023-03-07T04:11:52;100338.84;;;8.00;84.87
19508;BME280;40157;42.566;27.526;2023-03-07T04:13:52;100326.50;;;7.93;84.92
19508;BME280;40157;42.566;27.526;2023-03-07T04:15:53;100336.31;;;8.05;84.76
19508;BME280;40157;42.566;27.526;2023-03-07T04:17:54;100378.72;;;8.37;84.52
19508;BME280;40157;42.566;27.526;2023-03-07T04:19:54;100323.94;;;7.94;84.54
19508;BME280;40157;42.566;27.526;2023-03-07T04:21:54;100373.47;;;8.36;84.27
19508;BME280;40157;42.566;27.526;2023-03-07T04:23:55;100371.91;;;8.44;83.74
19508;BME280;40157;42.566;27.526;2023-03-07T04:25:59;100369.16;;;8.36;83.38
19508;BME280;40157;42.566;27.526;2023-03-07T04:27:59;100343.41;;;8.12;83.52
19508;BME280;40157;42.566;27.526;2023-03-07T04:30:00;100389.06;;;8.32;83.62
19508;BME280;40157;42.566;27.526;2023-03-07T04:32:00;100369.94;;;8.33;83.45
19508;BME280;40157;42.566;27.526;2023-03-07T04:34:01;100384.19;;;8.48;83.11
19508;BME280;40157;42.566;27.526;2023-03-07T04:36:01;100344.69;;;8.34;82.67
19508;BME280;40157;42.566;27.526;2023-03-07T04:38:02;100398.16;;;8.50;82.66
19508;BME280;40157;42.566;27.526;2023-03-07T04:40:02;100380.63;;;8.43;82.45
19508;BME280;40157;42.566;27.526;2023-03-07T04:42:03;100338.38;;;8.21;82.50
19508;BME280;40157;42.566;27.526;2023-03-07T04:44:03;100342.69;;;8.19;82.63
19508;BME280;40157;42.566;27.526;2023-03-07T04:46:04;100368.09;;;8.26;82.63
19508;BME280;40157;42.566;27.526;2023-03-07T04:48:05;100364.59;;;8.27;82.19
19508;BME280;40157;42.566;27.526;2023-03-07T04:50:06;100363.56;;;8.19;82.43
19508;BME280;40157;42.566;27.526;2023-03-07T04:52:07;100375.97;;;8.29;82.28
19508;BME280;40157;42.566;27.526;2023-03-07T04:54:08;100396.13;;;8.37;82.00
19508;BME280;40157;42.566;27.526;2023-03-07T04:56:09;100397.94;;;8.41;81.67
19508;BME280;40157;42.566;27.526;2023-03-07T04:58:10;100397.66;;;8.25;82.36
19508;BME280;40157;42.566;27.526;2023-03-07T05:00:12;100402.88;;;8.25;82.44
19508;BME280;40157;42.566;27.526;2023-03-07T05:02:13;100338.63;;;7.89;82.65
19508;BME280;40157;42.566;27.526;2023-03-07T05:04:13;100328.97;;;7.85;82.81
19508;BME280;40157;42.566;27.526;2023-03-07T05:06:14;100397.78;;;8.31;82.77
19508;BME280;40157;42.566;27.526;2023-03-07T05:08:15;100346.75;;;8.05;82.47
19508;BME280;40157;42.566;27.526;2023-03-07T05:10:16;100403.13;;;8.38;82.77
19508;BME280;40157;42.566;27.526;2023-03-07T05:12:16;100353.91;;;8.15;82.97
19508;BME280;40157;42.566;27.526;2023-03-07T05:14:17;100394.13;;;8.23;83.24
19508;BME280;40157;42.566;27.526;2023-03-07T05:16:17;100373.78;;;8.07;84.09
19508;BME280;40157;42.566;27.526;2023-03-07T05:18:18;100407.03;;;8.17;84.46
19508;BME280;40157;42.566;27.526;2023-03-07T05:20:18;100360.19;;;7.82;84.79
19508;BME280;40157;42.566;27.526;2023-03-07T05:22:19;100405.16;;;8.10;84.99
19508;BME280;40157;42.566;27.526;2023-03-07T05:24:20;100409.50;;;8.08;85.34
19508;BME280;40157;42.566;27.526;2023-03-07T05:26:20;100414.81;;;8.14;85.21
19508;BME280;40157;42.566;27.526;2023-03-07T05:28:21;100394.59;;;8.04;85.10
19508;BME280;40157;42.566;27.526;2023-03-07T05:30:21;100390.13;;;7.98;85.07
19508;BME280;40157;42.566;27.526;2023-03-07T05:32:22;100396.16;;;7.95;85.24
19508;BME280;40157;42.566;27.526;2023-03-07T05:34:22;100412.72;;;7.97;85.51
19508;BME280;40157;42.566;27.526;2023-03-07T05:36:22;100370.50;;;7.76;85.75
19508;BME280;40157;42.566;27.526;2023-03-07T05:38:23;100385.53;;;7.86;85.92
19508;BME280;40157;42.566;27.526;2023-03-07T05:40:24;100389.22;;;7.96;85.96
19508;BME280;40157;42.566;27.526;2023-03-07T05:42:24;100380.38;;;7.89;86.13
19508;BME280;40157;42.566;27.526;2023-03-07T05:44:25;100430.31;;;8.05;86.31
19508;BME280;40157;42.566;27.526;2023-03-07T05:46:25;100428.66;;;8.10;86.48
19508;BME280;40157;42.566;27.526;2023-03-07T05:48:26;100403.41;;;8.09;86.45
19508;BME280;40157;42.566;27.526;2023-03-07T05:50:27;100380.69;;;8.05;86.27
19508;BME280;40157;42.566;27.526;2023-03-07T05:52:27;100416.16;;;8.36;86.24
19508;BME280;40157;42.566;27.526;2023-03-07T05:54:28;100403.94;;;8.35;86.07
19508;BME280;40157;42.566;27.526;2023-03-07T05:56:28;100388.06;;;8.26;86.03
19508;BME280;40157;42.566;27.526;2023-03-07T05:58:29;100420.72;;;8.45;86.43
19508;BME280;40157;42.566;27.526;2023-03-07T06:00:29;100413.03;;;9.01;95.01
19508;BME280;40157;42.566;27.526;2023-03-07T06:02:29;100419.09;;;9.54;97.89
19508;BME280;40157;42.566;27.526;2023-03-07T06:04:30;100405.44;;;9.73;98.67
19508;BME280;40157;42.566;27.526;2023-03-07T06:06:30;100425.75;;;9.90;97.21
19508;BME280;40157;42.566;27.526;2023-03-07T06:08:31;100421.47;;;9.95;95.18
19508;BME280;40157;42.566;27.526;2023-03-07T06:10:32;100431.16;;;10.04;91.79
19508;BME280;40157;42.566;27.526;2023-03-07T06:12:33;100436.66;;;10.22;91.80
19508;BME280;40157;42.566;27.526;2023-03-07T06:14:33;100429.94;;;10.41;91.84
19508;BME280;40157;42.566;27.526;2023-03-07T06:16:34;100414.25;;;10.43;92.36
19508;BME280;40157;42.566;27.526;2023-03-07T06:18:34;100429.22;;;10.54;91.02
19508;BME280;40157;42.566;27.526;2023-03-07T06:20:35;100432.50;;;10.35;87.68
19508;BME280;40157;42.566;27.526;2023-03-07T06:22:35;100443.13;;;10.49;86.26
19508;BME280;40157;42.566;27.526;2023-03-07T06:24:39;100443.19;;;10.53;85.05
19508;BME280;40157;42.566;27.526;2023-03-07T06:26:39;100438.03;;;10.60;84.38
19508;BME280;40157;42.566;27.526;2023-03-07T06:28:41;100461.72;;;10.69;83.29
19508;BME280;40157;42.566;27.526;2023-03-07T06:30:41;100438.94;;;10.63;82.39
19508;BME280;40157;42.566;27.526;2023-03-07T06:32:42;100448.56;;;10.64;81.59
19508;BME280;40157;42.566;27.526;2023-03-07T06:34:42;100445.94;;;10.63;81.30
19508;BME280;40157;42.566;27.526;2023-03-07T06:36:43;100456.47;;;10.66;80.84
19508;BME280;40157;42.566;27.526;2023-03-07T06:38:44;100464.41;;;10.75;80.88
19508;BME280;40157;42.566;27.526;2023-03-07T06:40:44;100457.34;;;10.68;81.01
19508;BME280;40157;42.566;27.526;2023-03-07T06:42:45;100461.75;;;10.72;81.01
19508;BME280;40157;42.566;27.526;2023-03-07T06:44:45;100462.75;;;10.83;81.12
19508;BME280;40157;42.566;27.526;2023-03-07T06:46:45;100468.88;;;10.85;81.01
19508;BME280;40157;42.566;27.526;2023-03-07T06:48:46;100439.84;;;10.67;80.95
19508;BME280;40157;42.566;27.526;2023-03-07T06:50:46;100470.63;;;10.85;80.87
19508;BME280;40157;42.566;27.526;2023-03-07T06:52:47;100431.91;;;10.61;81.10
19508;BME280;40157;42.566;27.526;2023-03-07T06:54:49;100465.38;;;10.83;80.90
19508;BME280;40157;42.566;27.526;2023-03-07T06:56:49;100460.06;;;10.79;81.01
19508;BME280;40157;42.566;27.526;2023-03-07T06:58:50;100434.56;;;10.64;81.12
19508;BME280;40157;42.566;27.526;2023-03-07T07:00:51;100471.53;;;10.88;81.13
19508;BME280;40157;42.566;27.526;2023-03-07T07:02:51;100471.50;;;10.85;81.23
19508;BME280;40157;42.566;27.526;2023-03-07T07:04:52;100452.22;;;10.80;81.44
19508;BME280;40157;42.566;27.526;2023-03-07T07:06:52;100454.78;;;10.76;81.52
19508;BME280;40157;42.566;27.526;2023-03-07T07:08:55;100459.28;;;10.87;81.92
19508;BME280;40157;42.566;27.526;2023-03-07T07:10:57;100461.91;;;10.87;82.11
19508;BME280;40157;42.566;27.526;2023-03-07T07:12:58;100457.44;;;10.77;82.33
19508;BME280;40157;42.566;27.526;2023-03-07T07:14:59;100437.31;;;10.74;82.44
19508;BME280;40157;42.566;27.526;2023-03-07T07:17:01;100432.88;;;10.69;82.88
19508;BME280;40157;42.566;27.526;2023-03-07T07:19:02;100430.34;;;10.78;82.93
19508;BME280;40157;42.566;27.526;2023-03-07T07:21:02;100455.91;;;10.98;83.32
19508;BME280;40157;42.566;27.526;2023-03-07T07:23:04;100434.81;;;10.88;83.46
19508;BME280;40157;42.566;27.526;2023-03-07T07:25:05;100455.94;;;11.04;83.58
19508;BME280;40157;42.566;27.526;2023-03-07T07:27:05;100440.22;;;11.04;83.65
19508;BME280;40157;42.566;27.526;2023-03-07T07:29:06;100455.22;;;11.14;83.66
19508;BME280;40157;42.566;27.526;2023-03-07T07:31:06;100427.16;;;11.08;83.22
19508;BME280;40157;42.566;27.526;2023-03-07T07:33:07;100449.19;;;11.29;83.01
19508;BME280;40157;42.566;27.526;2023-03-07T07:35:08;100432.56;;;11.27;83.09
19508;BME280;40157;42.566;27.526;2023-03-07T07:37:09;100382.56;;;11.10;82.74
19508;BME280;40157;42.566;27.526;2023-03-07T07:39:09;100391.41;;;11.21;82.76
19508;BME280;40157;42.566;27.526;2023-03-07T07:41:10;100442.41;;;11.57;82.82
19508;BME280;40157;42.566;27.526;2023-03-07T07:43:13;100425.75;;;11.54;82.52
19508;BME280;40157;42.566;27.526;2023-03-07T07:45:14;100440.78;;;11.72;81.84
19508;BME280;40157;42.566;27.526;2023-03-07T07:47:15;100442.56;;;11.73;81.53
19508;BME280;40157;42.566;27.526;2023-03-07T07:49:15;100449.56;;;11.77;81.61
19508;BME280;40157;42.566;27.526;2023-03-07T07:51:16;100449.63;;;11.86;82.21
19508;BME280;40157;42.566;27.526;2023-03-07T07:53:16;100398.72;;;11.69;81.69
19508;BME280;40157;42.566;27.526;2023-03-07T07:55:17;100431.28;;;11.92;81.74
19508;BME280;40157;42.566;27.526;2023-03-07T07:57:17;100441.00;;;12.02;81.80
19508;BME280;40157;42.566;27.526;2023-03-07T07:59:17;100439.31;;;12.17;83.12
19508;BME280;40157;42.566;27.526;2023-03-07T08:01:20;100442.88;;;12.27;82.44
19508;BME280;40157;42.566;27.526;2023-03-07T08:03:21;100440.28;;;12.31;82.47
19508;BME280;40157;42.566;27.526;2023-03-07T08:05:22;100422.72;;;12.23;82.18
19508;BME280;40157;42.566;27.526;2023-03-07T08:07:22;100393.75;;;12.12;82.00
19508;BME280;40157;42.566;27.526;2023-03-07T08:09:23;100421.91;;;12.37;81.57
19508;BME280;40157;42.566;27.526;2023-03-07T08:11:23;100465.75;;;12.48;81.72
19508;BME280;40157;42.566;27.526;2023-03-07T08:13:24;100428.94;;;12.46;81.68
19508;BME280;40157;42.566;27.526;2023-03-07T08:15:24;100445.66;;;12.59;81.46
19508;BME280;40157;42.566;27.526;2023-03-07T08:17:24;100448.25;;;12.62;81.56
19508;BME280;40157;42.566;27.526;2023-03-07T08:19:25;100400.00;;;12.42;81.14
19508;BME280;40157;42.566;27.526;2023-03-07T08:21:26;100439.53;;;12.66;81.07
19508;BME280;40157;42.566;27.526;2023-03-07T08:23:27;100410.53;;;12.55;80.81
19508;BME280;40157;42.566;27.526;2023-03-07T08:25:27;100428.13;;;12.69;80.46
19508;BME280;40157;42.566;27.526;2023-03-07T08:27:28;100438.69;;;12.80;80.81
19508;BME280;40157;42.566;27.526;2023-03-07T08:29:28;100436.06;;;12.86;80.75
19508;BME280;40157;42.566;27.526;2023-03-07T08:31:29;100438.72;;;12.87;80.82
19508;BME280;40157;42.566;27.526;2023-03-07T08:33:29;100422.03;;;12.81;80.84
19508;BME280;40157;42.566;27.526;2023-03-07T08:35:30;100434.34;;;12.94;80.53
19508;BME280;40157;42.566;27.526;2023-03-07T08:37:31;100415.03;;;12.98;80.48
19508;BME280;40157;42.566;27.526;2023-03-07T08:39:31;100416.78;;;12.96;79.77
19508;BME280;40157;42.566;27.526;2023-03-07T08:41:32;100444.88;;;13.12;79.89
19508;BME280;40157;42.566;27.526;2023-03-07T08:43:34;100430.84;;;13.20;79.85
19508;BME280;40157;42.566;27.526;2023-03-07T08:45:39;100406.28;;;13.11;79.67
19508;BME280;40157;42.566;27.526;2023-03-07T08:47:39;100393.13;;;13.14;79.14
19508;BME280;40157;42.566;27.526;2023-03-07T08:49:40;100431.75;;;13.42;78.80
19508;BME280;40157;42.566;27.526;2023-03-07T08:51:40;100401.03;;;13.39;78.08
19508;BME280;40157;42.566;27.526;2023-03-07T08:53:41;100420.31;;;13.54;77.66
19508;BME280;40157;42.566;27.526;2023-03-07T08:55:42;100437.00;;;13.63;77.04
19508;BME280;40157;42.566;27.526;2023-03-07T08:57:43;100424.72;;;13.62;76.61
19508;BME280;40157;42.566;27.526;2023-03-07T08:59:44;100375.59;;;13.40;76.64
19508;BME280;40157;42.566;27.526;2023-03-07T09:01:45;100415.03;;;13.72;76.75
19508;BME280;40157;42.566;27.526;2023-03-07T09:03:47;100416.75;;;13.87;76.35
19508;BME280;40157;42.566;27.526;2023-03-07T09:05:47;100426.41;;;13.94;76.13
19508;BME280;40157;42.566;27.526;2023-03-07T09:07:48;100406.22;;;13.95;75.97
19508;BME280;40157;42.566;27.526;2023-03-07T09:09:48;100423.75;;;14.05;75.33
19508;BME280;40157;42.566;27.526;2023-03-07T09:11:49;100406.19;;;14.01;75.18
19508;BME280;40157;42.566;27.526;2023-03-07T09:13:49;100423.72;;;14.11;74.86
19508;BME280;40157;42.566;27.526;2023-03-07T09:15:50;100421.09;;;14.17;74.77
19508;BME280;40157;42.566;27.526;2023-03-07T09:17:50;100404.41;;;14.12;74.91
19508;BME280;40157;42.566;27.526;2023-03-07T09:19:50;100414.88;;;14.28;74.75
19508;BME280;40157;42.566;27.526;2023-03-07T09:21:51;100418.38;;;14.33;74.29
19508;BME280;40157;42.566;27.526;2023-03-07T09:23:51;100409.59;;;14.29;73.90
19508;BME280;40157;42.566;27.526;2023-03-07T09:25:52;100397.34;;;14.17;73.39
19508;BME280;40157;42.566;27.526;2023-03-07T09:27:52;100416.66;;;14.25;72.90
19508;BME280;40157;42.566;27.526;2023-03-07T09:29:53;100400.88;;;14.10;73.36
19508;BME280;40157;42.566;27.526;2023-03-07T09:31:53;100406.13;;;14.13;73.10
19508;BME280;40157;42.566;27.526;2023-03-07T09:33:55;100407.91;;;14.14;73.38
19508;BME280;40157;42.566;27.526;2023-03-07T09:35:56;100418.47;;;14.13;72.82
19508;BME280;40157;42.566;27.526;2023-03-07T09:37:56;100375.50;;;13.84;72.38
19508;BME280;40157;42.566;27.526;2023-03-07T09:39:57;100423.75;;;14.05;72.30
19508;BME280;40157;42.566;27.526;2023-03-07T09:42:00;100429.00;;;14.02;72.04
19508;BME280;40157;42.566;27.526;2023-03-07T09:51:22;100406.13;;;14.13;72.57
19508;BME280;40157;42.566;27.526;2023-03-07T09:53:42;100406.13;;;14.25;72.50
19508;BME280;40157;42.566;27.526;2023-03-07T09:55:42;100400.78;;;14.35;72.25
19508;BME280;40157;42.566;27.526;2023-03-07T09:57:47;100399.84;;;14.47;72.16
19508;BME280;40157;42.566;27.526;2023-03-07T09:59:52;100416.53;;;14.59;70.83
19508;BME280;40157;42.566;27.526;2023-03-07T10:02:03;100348.91;;;14.35;70.44
19508;BME280;40157;42.566;27.526;2023-03-07T10:04:05;100404.09;;;14.77;70.76
19508;BME280;40157;42.566;27.526;2023-03-07T10:06:25;100390.81;;;14.92;70.16
19508;BME280;40157;42.566;27.526;2023-03-07T10:08:30;100389.84;;;15.06;69.59
19508;BME280;40157;42.566;27.526;2023-03-07T10:10:40;100377.38;;;15.20;69.29
19508;BME280;40157;42.566;27.526;2023-03-07T10:12:53;100367.69;;;15.22;68.56
19508;BME280;40157;42.566;27.526;2023-03-07T10:15:14;100391.22;;;15.47;68.38
19508;BME280;40157;42.566;27.526;2023-03-07T10:21:50;100369.63;;;15.95;67.89
19508;BME280;40157;42.566;27.526;2023-03-07T10:24:07;100377.31;;;16.13;67.22
19508;BME280;40157;42.566;27.526;2023-03-07T10:26:15;100375.38;;;16.29;67.06
19508;BME280;40157;42.566;27.526;2023-03-07T10:28:22;100361.03;;;16.47;66.66
19508;BME280;40157;42.566;27.526;2023-03-07T10:30:23;100343.19;;;16.60;66.03
19508;BME280;40157;42.566;27.526;2023-03-07T10:32:46;100352.56;;;16.82;64.46
19508;BME280;40157;42.566;27.526;2023-03-07T10:34:59;100336.66;;;16.86;65.04
19508;BME280;40157;42.566;27.526;2023-03-07T10:37:18;100325.09;;;16.90;63.93
19508;BME280;40157;42.566;27.526;2023-03-07T10:39:29;100349.41;;;17.15;63.63
19508;BME280;40157;42.566;27.526;2023-03-07T10:41:33;100355.31;;;17.31;63.06
19508;BME280;40157;42.566;27.526;2023-03-07T10:43:35;100347.34;;;17.32;61.99
19508;BME280;40157;42.566;27.526;2023-03-07T10:45:35;100328.91;;;17.25;62.54
19508;BME280;40157;42.566;27.526;2023-03-07T10:47:37;100323.63;;;17.25;62.88
19508;BME280;40157;42.566;27.526;2023-03-07T10:49:42;100347.19;;;17.40;62.43